Thunder radar more information blitzortung!


avis per Pluja more information rain snow radar


Visita la nostra xarxa de llocs de meteo:

Template documentation
and downloads

And another site



Rain From: 17-10-2018 23:00 Until: 18-10-2018 16:59 warning for: Rain Level: Yellow info button

Pagina Historial Weather Underground text

Diari Resum Abril 24, 2016 Unitats:  Mètric    Imperial   Tant
« Previous Dia
SegĂźent Dia »
Diari Setmana Mensual Anual Personalitzada
  Maxima: Minima: Media:
Temperatura: -17.8 °C -13.2 °C -9.3 °C
Punt de rosada: -17.8 °C -17.9 °C -14.2 °C
Humitat: Humidity % 29 % 58 %
Wind Speed: 0 km/h 0 km/h 13.2 km/h
RĂ fegues de vent: 0 km/h - -
Vent:- - SSE
Pression baro: 0 hPa 34256.2 hPa -
Precipitacions: 0 mm    
Historical Graphs
 
 
Dades de taula per Abril 24, 2016
Temps Temperatura Punt de rosada Pression baro Vent Wind Speed RĂ fegues de vent Humitat Rainfall Rate (Hourly)
-17.8 °C -17.8 °C 0 hPa Calm     Humidity % 0 mm
00:00 -13.1 °C -14.8 °C 34293.4 hPa Calm   2.6 km/h 81 % 0 mm
00:01 -12.3 °C -14.3 °C 34327.3 hPa SW 6.3 km/h 6.3 km/h 78 % 0 mm
00:06 -12.3 °C -14.3 °C 34327.3 hPa SW 6 km/h 6 km/h 79 % 0 mm
00:10 -13.1 °C -14.8 °C 34293.4 hPa WSW 2.6 km/h 2.6 km/h 81 % 0 mm
00:11 -12.3 °C -14.3 °C 34327.3 hPa SW 3.1 km/h   79 % 0 mm
00:16 -12.3 °C -14.3 °C 34327.3 hPa SW 6 km/h 6 km/h 79 % 0 mm
00:20 -13.2 °C -14.9 °C 34256.2 hPa WSW 2.6 km/h 5.1 km/h 81 % 0 mm
00:21 -12.3 °C -14.2 °C 34327.3 hPa WSW 3.1 km/h 3.1 km/h 79 % 0 mm
00:30 -13.2 °C -14.9 °C 34293.4 hPa SW 2.6 km/h 5.1 km/h 81 % 0 mm
00:40 -13.2 °C -14.9 °C 34293.4 hPa SW 2.6 km/h 5.1 km/h 81 % 0 mm
00:50 -13.1 °C -14.8 °C 34256.2 hPa WSW 2.6 km/h 5.1 km/h 81 % 0 mm
01:00 -13.1 °C -14.8 °C 34256.2 hPa WSW 5.1 km/h 7.7 km/h 81 % 0 mm
01:10 -13.1 °C -14.8 °C 34256.2 hPa West 2.6 km/h 2.6 km/h 81 % 0 mm
01:20 -13.1 °C -14.8 °C 34256.2 hPa West 2.6 km/h 2.6 km/h 81 % 0 mm
01:30 -13.2 °C -14.9 °C 34293.4 hPa SW 2.6 km/h 2.6 km/h 81 % 0 mm
01:40 -13.2 °C -14.9 °C 34293.4 hPa West 2.6 km/h 2.6 km/h 81 % 0 mm
01:50 -13.2 °C -14.9 °C 34293.4 hPa Calm   5.1 km/h 81 % 0 mm
02:00 -13.2 °C -15.1 °C 34293.4 hPa Calm   2.6 km/h 80 % 0 mm
02:10 -13.2 °C -15.1 °C 34293.4 hPa WNW 2.6 km/h 5.1 km/h 80 % 0 mm
02:20 -13.2 °C -15.1 °C 34327.3 hPa NW 2.6 km/h 5.1 km/h 79 % 0 mm
02:30 -13.1 °C -14.9 °C 34327.3 hPa NW 2.6 km/h 7.7 km/h 79 % 0 mm
02:40 -12.8 °C -14.7 °C 34327.3 hPa North 2.6 km/h 5.1 km/h 79 % 0 mm
02:50 -12.7 °C -14.7 °C 34327.3 hPa NNE 5.1 km/h 5.1 km/h 78 % 0 mm
03:00 -12.7 °C -14.7 °C 34327.3 hPa WNW 2.6 km/h 10.3 km/h 78 % 0 mm
03:10 -12.4 °C -14.6 °C 34327.3 hPa WNW 2.6 km/h 5.1 km/h 77 % 0 mm
03:20 -12.1 °C -14.3 °C 34327.3 hPa NNE 5.1 km/h 10.3 km/h 76 % 0 mm
03:30 -11.9 °C -14.3 °C 34327.3 hPa NE 5.1 km/h 12.9 km/h 75 % 0 mm
03:40 -11.7 °C -14.1 °C 34327.3 hPa NE 2.6 km/h 12.9 km/h 74 % 0 mm
03:50 -11.4 °C -14.1 °C 34327.3 hPa NE 2.6 km/h 7.7 km/h 73 % 0 mm
04:00 -11.2 °C -13.8 °C 34327.3 hPa NNE 5.1 km/h 10.3 km/h 73 % 0 mm
04:10 -11.1 °C -13.9 °C 34327.3 hPa NNE 2.6 km/h 7.7 km/h 71 % 0 mm
04:20 -10.9 °C -13.8 °C 34293.4 hPa NE 5.1 km/h 10.3 km/h 70 % 0 mm
04:30 -10.8 °C -13.9 °C 34327.3 hPa NE 7.7 km/h 12.9 km/h 69 % 0 mm
04:40 -10.7 °C -13.8 °C 34327.3 hPa ENE 5.1 km/h 10.3 km/h 68 % 0 mm
04:50 -10.4 °C -13.7 °C 34327.3 hPa ENE 5.1 km/h 12.9 km/h 68 % 0 mm
05:00 -10.1 °C -13.3 °C 34327.3 hPa ENE 5.1 km/h 7.7 km/h 68 % 0 mm
05:10 -10.2 °C -13.7 °C 34327.3 hPa NE 7.7 km/h 10.3 km/h 66 % 0 mm
05:20 -9.9 °C -13.2 °C 34327.3 hPa NE 2.6 km/h 7.7 km/h 67 % 0 mm
05:30 -9.6 °C -13.2 °C 34327.3 hPa NNE 7.7 km/h 7.7 km/h 65 % 0 mm
05:40 -10 °C -13.7 °C 34327.3 hPa NE 18.2 km/h 18.2 km/h 64 % 0 mm
05:50 -9.7 °C -13.4 °C 34327.3 hPa NE 7.7 km/h 12.9 km/h 64 % 0 mm
06:00 -9.2 °C -13.1 °C 34327.3 hPa ENE 2.6 km/h 10.3 km/h 63 % 0 mm
06:10 -8.9 °C -13.1 °C 34327.3 hPa ENE 5.1 km/h 10.3 km/h 61 % 0 mm
06:20 -8.6 °C -12.7 °C 34327.3 hPa NNE 5.1 km/h 10.3 km/h 61 % 0 mm
06:30 -8.3 °C -12.8 °C 34327.3 hPa WNW 5.1 km/h 12.9 km/h 59 % 0 mm
06:40 -8.1 °C -13.3 °C 34327.3 hPa WSW 12.9 km/h 20.8 km/h 54 % 0 mm
06:50 -8 °C -13.6 °C 34327.3 hPa WSW 12.9 km/h 15.6 km/h 52 % 0 mm
07:00 -7.7 °C -13.4 °C 34327.3 hPa WSW 5.1 km/h 18.2 km/h 51 % 0 mm
07:20 -7.4 °C -13.5 °C 34327.3 hPa WSW 7.7 km/h 23.3 km/h 49 % 0 mm
12:34 -7.1 °C -13.7 °C 34327.3 hPa WNW 11.9 km/h 11.9 km/h 46 % 0 mm
12:39 -7 °C -13.6 °C 34327.3 hPa SW 11.9 km/h 11.9 km/h 46 % 0 mm
12:44 -6.8 °C -13.3 °C 34293.4 hPa SSW 12.2 km/h 12.2 km/h 47 % 0 mm
12:49 -6.8 °C -13.6 °C 34293.4 hPa SW 11.9 km/h 11.9 km/h 45 % 0 mm
12:54 -6.8 °C -13.8 °C 34293.4 hPa SW 15 km/h 15 km/h 44 % 0 mm
12:59 -6.7 °C -13.8 °C 34293.4 hPa SW 23.8 km/h 23.8 km/h 43 % 0 mm
13:09 -6.7 °C -14.1 °C 34293.4 hPa WSW 11.9 km/h 11.9 km/h 42 % 0 mm
13:14 -6.5 °C -13.9 °C 34293.4 hPa WSW 15 km/h 15 km/h 42 % 0 mm
13:19 -6.4 °C -13.8 °C 34293.4 hPa West 15.3 km/h 15.3 km/h 42 % 0 mm
13:24 -6.3 °C -13.7 °C 34293.4 hPa West 15 km/h 15 km/h 42 % 0 mm
13:29 -6.2 °C -13.8 °C 34256.2 hPa WNW 11.9 km/h 11.9 km/h 41 % 0 mm
13:34 -6.2 °C -14 °C 34256.2 hPa SW 17.9 km/h 17.9 km/h 40 % 0 mm
13:39 -6.1 °C -14.2 °C 34256.2 hPa West 15 km/h 15 km/h 39 % 0 mm
13:44 -6.1 °C -14.1 °C 34256.2 hPa WSW 16.1 km/h 16.1 km/h 39 % 0 mm
13:49 -6.1 °C -14.4 °C 34256.2 hPa WSW 15 km/h 15 km/h 38 % 0 mm
13:54 -6 °C -14.3 °C 34256.2 hPa SW 17.9 km/h 17.9 km/h 38 % 0 mm
13:59 -6.1 °C -14.3 °C 34256.2 hPa SW 15 km/h 15 km/h 38 % 0 mm
14:04 -6.2 °C -14.8 °C 34256.2 hPa WSW 20.9 km/h 20.9 km/h 36 % 0 mm
14:09 -6.1 °C -14.8 °C 34256.2 hPa WSW 23.8 km/h 23.8 km/h 36 % 0 mm
14:14 -5.7 °C -14.2 °C 34256.2 hPa WSW 17.9 km/h 17.9 km/h 37 % 0 mm
14:19 -5.8 °C -14.5 °C 34256.2 hPa SW 11.9 km/h 11.9 km/h 36 % 0 mm
14:24 -5.8 °C -15.1 °C 34256.2 hPa WNW 17.9 km/h 17.9 km/h 34 % 0 mm
14:29 -5.6 °C -14.8 °C 34293.4 hPa ENE 14.5 km/h 14.5 km/h 34 % 0 mm
14:34 -5.6 °C -14.8 °C 34293.4 hPa West 15 km/h 15 km/h 34 % 0 mm
14:39 -5.5 °C -14.7 °C 34293.4 hPa WSW 15 km/h 15 km/h 34 % 0 mm
14:44 -5.6 °C -15 °C 34293.4 hPa ENE 9 km/h 9 km/h 33 % 0 mm
14:49 -5.4 °C -14.9 °C 34293.4 hPa WNW 29 km/h 29 km/h 33 % 0 mm
14:54 -5.4 °C -14.9 °C 34293.4 hPa West 23.8 km/h 23.8 km/h 33 % 0 mm
14:59 -5.5 °C -14.9 °C 34293.4 hPa SW 9 km/h 9 km/h 33 % 0 mm
15:04 -5.4 °C -15.1 °C 34293.4 hPa South 11.9 km/h 11.9 km/h 32 % 0 mm
15:09 -5.5 °C -15.2 °C 34293.4 hPa WSW 11.9 km/h 11.9 km/h 32 % 0 mm
15:14 -5.2 °C -14.9 °C 34293.4 hPa SSW 11.9 km/h 11.9 km/h 32 % 0 mm
15:19 -5.3 °C -15.1 °C 34293.4 hPa NW 17.9 km/h 17.9 km/h 32 % 0 mm
15:24 -5.2 °C -14.9 °C 34293.4 hPa West 12.2 km/h 12.2 km/h 32 % 0 mm
15:29 -5 °C -15.1 °C 34293.4 hPa SW 11.9 km/h 11.9 km/h 31 % 0 mm
15:34 -5.2 °C -15.2 °C 34293.4 hPa WSW 15 km/h 15 km/h 31 % 0 mm
15:39 -5.1 °C -14.8 °C 34293.4 hPa West 8.5 km/h 8.5 km/h 32 % 0 mm
15:44 -5.1 °C -15.1 °C 34293.4 hPa WSW 15 km/h 15 km/h 31 % 0 mm
15:54 -5.1 °C -15.3 °C 34293.4 hPa West 15 km/h 15 km/h 30 % 0 mm
15:59 -4.9 °C -15.4 °C 34256.2 hPa SW 15 km/h 15 km/h 29 % 0 mm
16:04 -4.7 °C -15.3 °C 34256.2 hPa WNW 10.3 km/h 10.3 km/h 29 % 0 mm
16:09 -5 °C -15.6 °C 34256.2 hPa WNW 12.2 km/h 12.2 km/h 29 % 0 mm
16:14 -4.9 °C -15.4 °C 34256.2 hPa NW 9 km/h 9 km/h 29 % 0 mm
16:19 -5.2 °C -15.2 °C 34256.2 hPa ESE 15 km/h 15 km/h 31 % 0 mm
16:24 -5.8 °C -15.2 °C 34256.2 hPa ESE 17.9 km/h 17.9 km/h 33 % 0 mm
16:29 -5.9 °C -15.1 °C 34256.2 hPa ENE 9 km/h 9 km/h 34 % 0 mm
16:34 -6.1 °C -15.2 °C 34256.2 hPa ENE 15 km/h 15 km/h 34 % 0 mm
16:39 -6.1 °C -14.8 °C 34256.2 hPa NE 17.9 km/h 17.9 km/h 36 % 0 mm
16:44 -6.2 °C -14.5 °C 34256.2 hPa ENE 20.9 km/h 20.9 km/h 38 % 0 mm
16:49 -6.6 °C -14.6 °C 34256.2 hPa East 29.8 km/h 29.8 km/h 39 % 0 mm
16:54 -7.1 °C -14.6 °C 34256.2 hPa ESE 25.1 km/h 25.1 km/h 41 % 0 mm
16:59 -7.2 °C -14.6 °C 34256.2 hPa ENE 20.9 km/h 20.9 km/h 42 % 0 mm
17:04 -7.4 °C -14.6 °C 34256.2 hPa East 20.9 km/h 20.9 km/h 43 % 0 mm
17:09 -7.4 °C -14.2 °C 34256.2 hPa ENE 26.9 km/h 26.9 km/h 45 % 0 mm
17:14 -7.6 °C -14.1 °C 34256.2 hPa ESE 26.9 km/h 26.9 km/h 46 % 0 mm
17:19 -7.6 °C -14.1 °C 34256.2 hPa NE 23.8 km/h 23.8 km/h 46 % 0 mm
17:24 -7.7 °C -13.9 °C 34256.2 hPa WNW 23.8 km/h 23.8 km/h 48 % 0 mm
17:29 -7.8 °C -13.8 °C 34256.2 hPa ENE 26.9 km/h 26.9 km/h 49 % 0 mm
17:34 -7.7 °C -13.6 °C 34256.2 hPa SE 35.4 km/h 35.4 km/h 50 % 0 mm
17:39 -7.9 °C -13.8 °C 34256.2 hPa ESE 32.8 km/h 32.8 km/h 50 % 0 mm
17:49 -8.2 °C -13.8 °C 34256.2 hPa ENE 23.8 km/h 23.8 km/h 51 % 0 mm
17:54 -8.3 °C -13.9 °C 34256.2 hPa ESE 20.9 km/h 23.8 km/h 51 % 0 mm
18:04 -8.4 °C -13.7 °C 34256.2 hPa ENE 23.8 km/h 23.8 km/h 53 % 0 mm
18:09 -8.3 °C -13.8 °C 34256.2 hPa ENE 32.8 km/h 32.8 km/h 52 % 0 mm
18:14 -8.3 °C -13.7 °C 34256.2 hPa East 17.9 km/h 17.9 km/h 53 % 0 mm
18:19 -8.4 °C -13.6 °C 34256.2 hPa East 32.8 km/h 32.8 km/h 54 % 0 mm
18:24 -8.4 °C -13.6 °C 34256.2 hPa ENE 20.9 km/h 20.9 km/h 54 % 0 mm
18:29 -8.4 °C -13.7 °C 34256.2 hPa SE 22 km/h 22 km/h 54 % 0 mm
18:34 -8.4 °C -13.7 °C 34256.2 hPa ENE 20.9 km/h 20.9 km/h 54 % 0 mm
18:39 -8.5 °C -13.7 °C 34256.2 hPa ESE 26.9 km/h 26.9 km/h 54 % 0 mm
18:44 -8.4 °C -13.7 °C 34256.2 hPa ENE 29.8 km/h 29.8 km/h 54 % 0 mm
18:49 -8.6 °C -13.6 °C 34256.2 hPa ENE 26.9 km/h 26.9 km/h 55 % 0 mm
18:54 -8.6 °C -13.7 °C 34256.2 hPa ENE 32.8 km/h 32.8 km/h 55 % 0 mm
18:59 -8.6 °C -13.7 °C 34256.2 hPa ESE 20.9 km/h 20.9 km/h 55 % 0 mm
19:04 -8.6 °C -13.7 °C 34256.2 hPa ESE 20.9 km/h 20.9 km/h 55 % 0 mm
19:09 -8.7 °C -13.8 °C 34256.2 hPa ENE 23.8 km/h 23.8 km/h 55 % 0 mm
19:10 -10.8 °C -13.6 °C 34395 hPa NE 5.1 km/h 5.1 km/h 72 % 0 mm
19:14 -8.8 °C -13.8 °C 34293.4 hPa ESE 20.9 km/h 25.1 km/h 55 % 0 mm
19:19 -8.9 °C -13.6 °C 34293.4 hPa ESE 32.8 km/h 32.8 km/h 57 % 0 mm
19:20 -10.9 °C -13.6 °C 34395 hPa NE 2.6 km/h 5.1 km/h 72 % 0 mm
19:24 -8.9 °C -13.6 °C 34293.4 hPa NE 20.9 km/h 20.9 km/h 57 % 0 mm
19:29 -8.9 °C -13.5 °C 34293.4 hPa ENE 29.8 km/h 29.8 km/h 58 % 0 mm
19:30 -10.9 °C -13.7 °C 34395 hPa Calm   5.1 km/h 72 % 0 mm
19:34 -9.1 °C -13.7 °C 34293.4 hPa ESE 28.2 km/h 28.2 km/h 58 % 0 mm
19:39 -9.1 °C -13.6 °C 34293.4 hPa ESE 27.7 km/h 27.7 km/h 59 % 0 mm
19:40 -11.1 °C -13.8 °C 34395 hPa ENE 2.6 km/h 2.6 km/h 72 % 0 mm
19:44 -9.2 °C -13.6 °C 34327.3 hPa ENE 25.4 km/h 25.4 km/h 59 % 0 mm
19:50 -11.2 °C -13.8 °C 34395 hPa Calm     73 % 0 mm
19:54 -9.3 °C -13.5 °C 34327.3 hPa ESE 20.9 km/h 20.9 km/h 61 % 0 mm
19:59 -9.4 °C -13.4 °C 34327.3 hPa ESE 35.7 km/h 35.7 km/h 62 % 0 mm
20:00 -11.3 °C -14.1 °C 34395 hPa NNW 5.1 km/h 5.1 km/h 71 % 0 mm
20:04 -9.4 °C -13.4 °C 34327.3 hPa East 19.2 km/h 19.2 km/h 62 % 0 mm
20:10 -11.3 °C -13.8 °C 34395 hPa Calm   2.6 km/h 74 % 0 mm
20:14 -9.6 °C -13.5 °C 34327.3 hPa ESE 20.9 km/h 20.9 km/h 63 % 0 mm
20:19 -9.6 °C -13.5 °C 34327.3 hPa ESE 6.8 km/h 6.8 km/h 63 % 0 mm
20:24 -9.7 °C -13.4 °C 34327.3 hPa East 23.8 km/h 23.8 km/h 64 % 0 mm
20:30 -11.5 °C -14 °C 34395 hPa West 2.6 km/h 2.6 km/h 74 % 0 mm
20:34 -9.8 °C -13.3 °C 34327.3 hPa ENE 20.9 km/h 20.9 km/h 66 % 0 mm
20:39 -9.8 °C -13.3 °C 34327.3 hPa ENE 20.9 km/h 20.9 km/h 66 % 0 mm
20:40 -11.6 °C -14.3 °C 34395 hPa WSW 5.1 km/h 5.1 km/h 72 % 0 mm
20:44 -9.9 °C -13.2 °C 34327.3 hPa East 11.9 km/h 11.9 km/h 67 % 0 mm
20:49 -9.9 °C -13.2 °C 34327.3 hPa East 15 km/h 15 km/h 67 % 0 mm
20:50 -11.8 °C -14.6 °C 34395 hPa Calm   2.6 km/h 71 % 0 mm
20:54 -9.9 °C -13.2 °C 34327.3 hPa ENE 20.9 km/h 20.9 km/h 68 % 0 mm
20:59 -10 °C -13.1 °C 34327.3 hPa East 11.9 km/h 11.9 km/h 69 % 0 mm
21:00 -12 °C -15.1 °C 34395 hPa Calm     69 % 0 mm
21:04 -10.1 °C -13.2 °C 34327.3 hPa ENE 15 km/h 15 km/h 69 % 0 mm
21:09 -10.1 °C -13.2 °C 34327.3 hPa ENE 15 km/h 16.1 km/h 69 % 0 mm
21:10 -12.1 °C -15.2 °C 34395 hPa SW 2.6 km/h 2.6 km/h 68 % 0 mm
21:14 -10.2 °C -13.2 °C 34327.3 hPa ESE 25.1 km/h 25.1 km/h 70 % 0 mm
21:19 -10.2 °C -13.2 °C 34327.3 hPa East 15 km/h 15 km/h 70 % 0 mm
21:20 -12.1 °C -15.7 °C 34395 hPa WSW 5.1 km/h 7.7 km/h 64 % 0 mm
21:24 -10.2 °C -12.9 °C 34327.3 hPa East 23.8 km/h 23.8 km/h 72 % 0 mm
21:29 -10.2 °C -13.2 °C 34327.3 hPa East 20.9 km/h 20.9 km/h 70 % 0 mm
21:30 -11.8 °C -15.8 °C 34395 hPa West 5.1 km/h 7.7 km/h 61 % 0 mm
21:34 -10.3 °C -13 °C 34327.3 hPa East 32.8 km/h 32.8 km/h 72 % 0 mm
21:39 -10.3 °C -13 °C 34327.3 hPa NNW 20.9 km/h 20.9 km/h 72 % 0 mm
21:40 -11.9 °C -16.3 °C 34395 hPa WSW 7.7 km/h 7.7 km/h 58 % 0 mm
21:44 -10.3 °C -13.2 °C 34361.1 hPa ENE 15.3 km/h 15.3 km/h 71 % 0 mm
21:49 -10.3 °C -13.2 °C 34361.1 hPa ENE 11.9 km/h 11.9 km/h 71 % 0 mm
21:50 -11.9 °C -16.6 °C 34395 hPa WSW 5.1 km/h 10.3 km/h 56 % 0 mm
21:54 -10.4 °C -13.2 °C 34361.1 hPa ENE 20.9 km/h 20.9 km/h 71 % 0 mm
21:59 -10.4 °C -13.2 °C 34361.1 hPa ENE 15 km/h 15 km/h 71 % 0 mm
22:00 -11.9 °C -16.9 °C 34395 hPa WSW 5.1 km/h 10.3 km/h 54 % 0 mm
22:04 -10.4 °C -13.3 °C 34361.1 hPa ENE 17.9 km/h 17.9 km/h 71 % 0 mm
22:09 -10.4 °C -13.2 °C 34361.1 hPa East 15.6 km/h 15.6 km/h 72 % 0 mm
22:10 -12.1 °C -17 °C 34395 hPa WSW 5.1 km/h 7.7 km/h 54 % 0 mm
22:19 -10.5 °C -13.2 °C 34395 hPa ESE 11.9 km/h 11.9 km/h 72 % 0 mm
22:20 -12 °C -17.3 °C 34395 hPa WSW 12.9 km/h 12.9 km/h 52 % 0 mm
22:24 -10.5 °C -13.2 °C 34395 hPa ENE 15 km/h 15 km/h 72 % 0 mm
22:29 -10.5 °C -13.2 °C 34395 hPa ENE 15 km/h 15 km/h 72 % 0 mm
22:30 -12.1 °C -17.5 °C 34428.8 hPa WSW 7.7 km/h 18.2 km/h 51 % 0 mm
22:34 -10.6 °C -13.3 °C 34395 hPa East 15 km/h 15 km/h 72 % 0 mm
22:39 -10.6 °C -13.3 °C 34395 hPa NW 11.9 km/h 11.9 km/h 72 % 0 mm
22:40 -12.1 °C -17.5 °C 34428.8 hPa West 12.9 km/h 15.6 km/h 51 % 0 mm
22:45 -10.6 °C -13.4 °C 34395 hPa NNE 6 km/h 6 km/h 71 % 0 mm
22:50 -10.6 °C -13.3 °C 34395 hPa NNE 3.7 km/h 3.7 km/h 72 % 0 mm
22:55 -10.6 °C -13.3 °C 34395 hPa NNE 6 km/h 6 km/h 72 % 0 mm
23:00 -12.3 °C -17.9 °C 34462.7 hPa West 12.9 km/h 12.9 km/h 50 % 0 mm
23:05 -10.5 °C -13.4 °C 34395 hPa NE 6.3 km/h 15.3 km/h 71 % 0 mm
23:10 -10.5 °C -13.5 °C 34395 hPa ENE 12.2 km/h 12.2 km/h 70 % 0 mm
23:15 -10.5 °C -13.4 °C 34395 hPa East 16.6 km/h 16.6 km/h 71 % 0 mm
23:20 -10.5 °C -13.4 °C 34395 hPa ENE 11.9 km/h 11.9 km/h 71 % 0 mm
23:25 -10.6 °C -13.4 °C 34395 hPa ESE 9.8 km/h 9.8 km/h 71 % 0 mm
23:30 -10.6 °C -13.4 °C 34395 hPa East 6.3 km/h 6.3 km/h 71 % 0 mm
23:35 -10.6 °C -13.4 °C 34395 hPa ESE 15 km/h 15 km/h 71 % 0 mm
23:40 -10.7 °C -13.5 °C 34395 hPa NE 6.8 km/h 6.8 km/h 71 % 0 mm
23:45 -10.7 °C -13.6 °C 34395 hPa ENE 11.1 km/h 11.1 km/h 71 % 0 mm
23:50 -10.7 °C -13.6 °C 34395 hPa ENE 6 km/h 6 km/h 71 % 0 mm
23:55 -10.8 °C -13.6 °C 34395 hPa East 11.9 km/h 11.9 km/h 71 % 0 mm
Meteo Sesrovires
Elogis d' Weather Underground - 1.5 mb

Guio original per  Jim McMurry - jmcmurry@mwt.net Adaptat per a la plantilla per  Wim van der Kuil - Leuven-Template.eu

Trobareu la nostra informacio del temps tambe a:

Weather Underground

AWEKAS